createdAt,value
2023-03-08T00:01:25.123Z,90.27
2023-03-08T00:03:58.316Z,91.32
2023-03-08T00:06:28.595Z,91.48
2023-03-08T00:09:00.931Z,92.27
2023-03-08T00:11:30.388Z,92.01
2023-03-08T00:14:00.345Z,92.20
2023-03-08T00:16:28.854Z,93.05
2023-03-08T00:18:57.163Z,92.95
2023-03-08T00:21:25.564Z,93.40
2023-03-08T00:23:55.510Z,93.04
2023-03-08T00:26:24.036Z,92.92
2023-03-08T00:28:53.989Z,92.63
2023-03-08T00:31:22.464Z,92.64
2023-03-08T00:33:55.752Z,92.43
2023-03-08T00:36:24.459Z,91.30
2023-03-08T00:38:53.498Z,89.24
2023-03-08T00:41:21.918Z,89.77
2023-03-08T00:43:50.880Z,89.43
2023-03-08T00:46:19.520Z,88.62
2023-03-08T00:48:48.072Z,88.20
2023-03-08T00:51:18.064Z,86.57
2023-03-08T00:53:46.695Z,85.10
2023-03-08T00:56:15.461Z,86.09
2023-03-08T00:58:44.160Z,86.67
2023-03-08T01:01:17.728Z,87.41
2023-03-08T01:03:46.113Z,86.56
2023-03-08T01:06:16.944Z,86.52
2023-03-08T01:08:45.766Z,85.44
2023-03-08T01:11:24.128Z,84.77
2023-03-08T01:13:54.283Z,83.83
2023-03-08T01:16:28.902Z,83.85
2023-03-08T01:18:58.438Z,84.86
2023-03-08T01:21:28.725Z,83.02
2023-03-08T01:23:57.403Z,82.25
2023-03-08T01:26:28.062Z,82.28
2023-03-08T01:28:57.015Z,80.85
2023-03-08T01:31:27.668Z,81.13
2023-03-08T01:33:57.215Z,81.24
2023-03-08T01:36:27.718Z,79.31
2023-03-08T01:38:56.106Z,79.89
2023-03-08T01:41:30.536Z,80.64
2023-03-08T01:43:59.547Z,79.50
2023-03-08T01:46:35.610Z,78.69
2023-03-08T01:49:17.770Z,78.46
2023-03-08T01:51:58.073Z,77.63
2023-03-08T01:54:50.624Z,78.44
2023-03-08T01:57:24.328Z,79.45
2023-03-08T01:59:57.574Z,79.49
2023-03-08T02:02:32.779Z,78.56
2023-03-08T02:05:01.240Z,76.66
2023-03-08T02:07:29.617Z,76.65
2023-03-08T02:09:57.944Z,76.58
2023-03-08T02:12:27.763Z,77.29
2023-03-08T02:14:58.743Z,77.28
2023-03-08T02:17:27.628Z,77.18
2023-03-08T02:20:30.503Z,75.90
2023-03-08T02:23:13.610Z,76.35
2023-03-08T02:25:43.495Z,74.48
2023-03-08T02:28:11.928Z,73.19
2023-03-08T02:30:42.464Z,74.08
2023-03-08T02:33:10.908Z,73.59
2023-03-08T02:35:43.725Z,74.06
2023-03-08T02:38:13.491Z,74.11
2023-03-08T02:40:42.484Z,73.54
2023-03-08T02:43:11.089Z,73.93
2023-03-08T02:45:39.365Z,73.20
2023-03-08T02:48:08.337Z,71.78
2023-03-08T02:50:39.998Z,72.29
2023-03-08T02:53:08.833Z,71.25
2023-03-08T02:55:37.841Z,70.96
2023-03-08T02:58:07.427Z,71.41
2023-03-08T03:00:35.884Z,71.12
2023-03-08T03:03:04.201Z,71.47
2023-03-08T03:05:32.771Z,70.47
2023-03-08T03:08:02.254Z,69.95
2023-03-08T03:10:30.648Z,70.60
2023-03-08T03:12:58.960Z,70.85
2023-03-08T03:15:27.503Z,70.51
2023-03-08T03:17:55.889Z,70.51
2023-03-08T03:20:24.290Z,70.10
2023-03-08T03:22:52.673Z,70.12
2023-03-08T03:25:21.009Z,69.72
2023-03-08T03:27:49.443Z,68.85
2023-03-08T03:30:19.533Z,69.85
2023-03-08T03:32:48.025Z,68.28
2023-03-08T03:35:16.423Z,68.87
2023-03-08T03:37:44.769Z,67.56
2023-03-08T03:40:15.089Z,68.86
2023-03-08T03:42:43.413Z,67.94
2023-03-08T03:45:12.388Z,67.81
2023-03-08T03:47:40.760Z,67.76
2023-03-08T03:50:09.648Z,67.55
2023-03-08T03:52:37.952Z,66.87
2023-03-08T03:55:07.135Z,66.97
2023-03-08T03:57:35.467Z,67.21
2023-03-08T04:00:04.476Z,67.27
2023-03-08T04:02:33.454Z,67.10
2023-03-08T04:05:01.853Z,67.23
2023-03-08T04:07:30.216Z,66.96
2023-03-08T04:09:58.650Z,65.52
2023-03-08T04:12:26.946Z,66.09
2023-03-08T04:14:55.743Z,65.71
2023-03-08T04:17:24.073Z,66.10
2023-03-08T04:19:52.358Z,65.77
2023-03-08T04:22:20.690Z,65.82
2023-03-08T04:24:49.015Z,63.79
2023-03-08T04:27:17.353Z,63.09
2023-03-08T04:29:45.655Z,65.26
2023-03-08T04:32:14.057Z,65.65
2023-03-08T04:34:43.895Z,65.25
2023-03-08T04:37:13.386Z,62.37
2023-03-08T04:39:41.759Z,61.80
2023-03-08T04:42:10.061Z,62.30
2023-03-08T04:44:38.443Z,62.35
2023-03-08T04:47:06.790Z,60.92
2023-03-08T04:49:35.180Z,60.93
2023-03-08T04:52:03.536Z,60.88
2023-03-08T04:54:31.904Z,61.82
2023-03-08T04:57:00.216Z,61.29
2023-03-08T04:59:28.690Z,60.14
2023-03-08T05:01:56.987Z,60.16
2023-03-08T05:04:25.378Z,55.87
2023-03-08T05:06:53.678Z,54.07
2023-03-08T05:09:21.963Z,56.71
2023-03-08T05:11:50.252Z,55.81
2023-03-08T05:14:18.668Z,56.03
2023-03-08T05:16:47.024Z,55.59
2023-03-08T05:19:15.490Z,56.20
2023-03-08T05:21:43.807Z,56.78
2023-03-08T05:24:12.110Z,55.84
2023-03-08T05:26:40.491Z,56.48
2023-03-08T05:29:08.848Z,56.91
2023-03-08T05:31:40.935Z,56.39
2023-03-08T05:34:12.300Z,58.13
2023-03-08T05:36:40.632Z,57.56
2023-03-08T05:39:09.080Z,57.54
2023-03-08T05:41:37.374Z,56.41
2023-03-08T05:44:05.783Z,55.21
2023-03-08T05:46:34.178Z,54.30
2023-03-08T05:49:02.462Z,54.83
2023-03-08T05:51:30.774Z,55.91
2023-03-08T05:53:59.164Z,54.65
2023-03-08T05:56:27.557Z,54.86
2023-03-08T05:58:56.128Z,54.13
2023-03-08T06:01:26.856Z,56.66
2023-03-08T06:03:58.317Z,54.23
2023-03-08T06:06:28.439Z,54.26
2023-03-08T06:08:59.617Z,55.42
2023-03-08T06:11:27.973Z,55.96
2023-03-08T06:13:56.512Z,55.71
2023-03-08T06:16:24.976Z,53.38
2023-03-08T06:18:53.264Z,53.26
2023-03-08T06:21:23.221Z,51.44
2023-03-08T06:23:51.670Z,54.95
2023-03-08T06:26:20.421Z,53.33
2023-03-08T06:28:48.718Z,51.41
2023-03-08T06:31:19.412Z,53.58
2023-03-08T06:33:47.760Z,48.60
2023-03-08T06:36:19.407Z,45.84
2023-03-08T06:38:49.012Z,47.73
2023-03-08T06:41:19.312Z,48.81
2023-03-08T06:43:47.638Z,46.40
2023-03-08T06:46:21.276Z,46.31
2023-03-08T06:48:50.999Z,49.04
2023-03-08T06:51:20.324Z,46.53
2023-03-08T06:53:49.120Z,44.76
2023-03-08T06:56:19.314Z,45.14
2023-03-08T06:58:47.729Z,46.92
2023-03-08T07:01:16.110Z,44.66
2023-03-08T07:03:46.299Z,45.02
2023-03-08T07:06:14.718Z,43.91
2023-03-08T07:08:43.445Z,44.94
2023-03-08T07:11:12.323Z,45.64
2023-03-08T07:13:40.674Z,45.97
2023-03-08T07:16:11.564Z,44.59
2023-03-08T07:18:40.698Z,45.41
2023-03-08T07:21:11.173Z,45.42
2023-03-08T07:23:39.576Z,45.21
2023-03-08T07:26:09.078Z,44.97
2023-03-08T07:28:37.659Z,46.39
2023-03-08T07:31:06.531Z,44.28
2023-03-08T07:33:35.129Z,47.99
2023-03-08T07:36:03.748Z,44.75
2023-03-08T07:38:32.276Z,46.46
2023-03-08T07:41:00.553Z,46.93
2023-03-08T07:43:28.975Z,46.36
2023-03-08T07:45:59.955Z,45.01
2023-03-08T07:48:28.411Z,44.68
2023-03-08T07:50:57.090Z,45.27
2023-03-08T07:53:25.402Z,42.52
2023-03-08T07:55:53.698Z,43.93
2023-03-08T07:58:23.042Z,44.38
2023-03-08T08:00:51.378Z,44.65
2023-03-08T08:03:19.754Z,43.85
2023-03-08T08:05:48.235Z,45.25
2023-03-08T08:08:16.640Z,46.34
2023-03-08T08:10:45.457Z,44.52
2023-03-08T08:13:13.915Z,44.45
2023-03-08T08:15:42.236Z,45.59
2023-03-08T08:18:10.515Z,45.25
2023-03-08T08:20:38.927Z,40.92
2023-03-08T08:23:08.552Z,44.30
2023-03-08T08:25:36.902Z,44.48
2023-03-08T08:28:05.211Z,43.95
2023-03-08T08:30:33.643Z,45.16
2023-03-08T08:33:04.329Z,45.18
2023-03-08T08:35:42.848Z,44.12
2023-03-08T08:38:11.897Z,44.92
2023-03-08T08:40:40.170Z,44.06
2023-03-08T08:43:08.500Z,46.35
2023-03-08T08:45:37.066Z,47.27
2023-03-08T08:48:06.797Z,46.29
2023-03-08T08:50:35.104Z,46.13
2023-03-08T08:53:03.447Z,45.88
2023-03-08T08:55:31.979Z,45.92
2023-03-08T08:58:00.341Z,48.38
2023-03-08T09:00:28.878Z,47.18
2023-03-08T09:02:57.447Z,45.88
2023-03-08T09:05:25.773Z,45.56
2023-03-08T09:08:01.958Z,46.86
2023-03-08T09:10:32.107Z,46.62
2023-03-08T09:13:01.155Z,45.68
2023-03-08T09:15:29.511Z,45.82
2023-03-08T09:17:57.934Z,46.69
2023-03-08T09:20:26.292Z,47.62
2023-03-08T09:22:54.690Z,47.48
2023-03-08T09:25:25.050Z,46.74
2023-03-08T09:27:53.757Z,47.40
2023-03-08T09:30:22.255Z,47.15
2023-03-08T09:32:50.598Z,46.99
2023-03-08T09:35:19.056Z,47.65
2023-03-08T09:37:47.360Z,47.11
2023-03-08T09:40:25.022Z,47.76
2023-03-08T09:42:54.905Z,47.99
2023-03-08T09:45:30.194Z,49.21
2023-03-08T09:48:20.259Z,51.04
2023-03-08T09:50:55.084Z,50.00
2023-03-08T09:53:39.752Z,50.34
2023-03-08T09:56:17.124Z,49.43
2023-03-08T09:58:48.785Z,50.05
2023-03-08T10:01:50.651Z,51.00
2023-03-08T10:04:31.403Z,50.94
2023-03-08T10:07:28.773Z,51.44
2023-03-08T10:10:08.392Z,51.75
2023-03-08T10:13:24.534Z,52.84
2023-03-08T10:15:56.814Z,53.02
2023-03-08T10:18:54.596Z,53.60
2023-03-08T10:21:25.621Z,52.62
2023-03-08T10:24:18.575Z,52.26
2023-03-08T10:26:47.301Z,52.91
2023-03-08T10:29:16.386Z,52.53
2023-03-08T10:31:48.080Z,52.67
2023-03-08T10:34:20.598Z,52.88
2023-03-08T10:37:01.589Z,53.35
2023-03-08T10:39:30.117Z,53.69
2023-03-08T10:42:07.572Z,54.09
2023-03-08T10:44:54.370Z,54.46
2023-03-08T10:47:31.589Z,54.48
2023-03-08T10:50:21.711Z,54.71
2023-03-08T10:52:51.967Z,55.26
2023-03-08T10:55:23.414Z,56.15
2023-03-08T10:57:56.271Z,56.96
2023-03-08T11:00:43.845Z,57.50
2023-03-08T11:03:14.012Z,58.04
2023-03-08T11:06:12.707Z,58.36
2023-03-08T11:09:00.925Z,58.81
2023-03-08T11:11:30.001Z,59.37
2023-03-08T11:13:58.428Z,59.74
2023-03-08T11:16:38.820Z,59.46
2023-03-08T11:19:37.943Z,59.62
2023-03-08T11:22:09.175Z,59.53
2023-03-08T11:25:02.008Z,61.09
2023-03-08T11:27:57.882Z,62.04
2023-03-08T11:30:44.785Z,61.01
2023-03-08T11:33:32.755Z,61.81
2023-03-08T11:36:07.855Z,61.62
2023-03-08T11:38:37.787Z,61.25
2023-03-08T11:41:15.573Z,61.66
2023-03-08T11:44:08.240Z,62.25
2023-03-08T11:47:30.947Z,63.01
2023-03-08T11:50:12.203Z,64.17
2023-03-08T11:53:02.308Z,65.07
2023-03-08T11:55:30.600Z,66.50
2023-03-08T11:58:21.288Z,67.39
2023-03-08T12:00:54.213Z,68.77
2023-03-08T12:03:38.097Z,69.37
2023-03-08T12:06:28.027Z,69.67
2023-03-08T12:09:06.621Z,70.67
2023-03-08T12:11:43.988Z,70.41
2023-03-08T12:14:21.024Z,70.46
2023-03-08T12:16:58.690Z,70.31
2023-03-08T12:19:56.375Z,69.77
2023-03-08T12:22:48.459Z,70.72
2023-03-08T12:25:28.364Z,72.00
2023-03-08T12:28:29.982Z,72.39
2023-03-08T12:31:29.177Z,74.00
2023-03-08T12:33:59.973Z,73.51
2023-03-08T12:36:43.920Z,73.12
2023-03-08T12:39:37.009Z,72.59
2023-03-08T12:42:17.196Z,72.14
2023-03-08T12:44:45.768Z,71.97
2023-03-08T12:47:16.648Z,71.71
2023-03-08T12:49:48.645Z,71.84
2023-03-08T12:52:20.147Z,71.57
2023-03-08T12:55:06.828Z,71.66
2023-03-08T12:57:43.943Z,71.63
2023-03-08T13:00:21.631Z,71.65
2023-03-08T13:03:05.969Z,71.77
2023-03-08T13:05:39.768Z,71.90
2023-03-08T13:08:08.268Z,72.57
2023-03-08T13:10:42.255Z,72.97
2023-03-08T13:13:27.044Z,74.28
2023-03-08T13:16:21.492Z,75.22
2023-03-08T13:18:55.015Z,76.14
2023-03-08T13:21:36.520Z,76.46
2023-03-08T13:24:15.839Z,77.27
2023-03-08T13:27:15.074Z,76.97
2023-03-08T13:29:45.695Z,78.57
2023-03-08T13:32:18.959Z,79.59
2023-03-08T13:34:59.629Z,79.88
2023-03-08T13:37:31.262Z,81.48
2023-03-08T13:40:01.548Z,82.30
2023-03-08T13:42:30.651Z,82.65
2023-03-08T13:45:18.638Z,83.39
2023-03-08T13:47:48.428Z,84.55
2023-03-08T13:50:30.609Z,84.94
2023-03-08T13:53:01.681Z,85.31
2023-03-08T13:55:36.817Z,84.51
2023-03-08T13:58:05.552Z,84.54
2023-03-08T14:00:36.492Z,84.72
2023-03-08T14:03:09.602Z,84.97
2023-03-08T14:05:44.985Z,84.85
2023-03-08T14:08:25.883Z,84.68
2023-03-08T14:11:09.170Z,85.32
2023-03-08T14:13:40.593Z,85.33
2023-03-08T14:16:10.578Z,85.38
2023-03-08T14:18:46.225Z,85.76
2023-03-08T14:21:27.350Z,85.72
2023-03-08T14:24:01.750Z,86.18
2023-03-08T14:26:39.230Z,86.14
2023-03-08T14:29:28.681Z,87.58
2023-03-08T14:32:14.041Z,88.58
2023-03-08T14:34:47.753Z,88.67
2023-03-08T14:37:24.835Z,88.96
2023-03-08T14:40:26.582Z,89.23
2023-03-08T14:43:17.930Z,89.30
2023-03-08T14:46:02.383Z,90.04
2023-03-08T14:48:30.977Z,89.59
2023-03-08T14:51:04.629Z,89.64
2023-03-08T14:53:39.678Z,89.30
2023-03-08T14:56:12.913Z,88.33
2023-03-08T14:58:47.821Z,88.07
2023-03-08T15:01:32.739Z,87.45
2023-03-08T15:04:02.175Z,87.63
2023-03-08T15:06:33.844Z,87.97
2023-03-08T15:09:03.674Z,88.01
2023-03-08T15:11:33.470Z,88.48
2023-03-08T15:14:02.498Z,88.58
2023-03-08T15:16:30.877Z,89.58
2023-03-08T15:18:59.250Z,90.96
2023-03-08T15:21:29.584Z,91.01
2023-03-08T15:23:59.092Z,91.00
2023-03-08T15:26:30.116Z,90.01
2023-03-08T15:28:58.862Z,89.30
2023-03-08T15:31:27.295Z,89.44
2023-03-08T15:33:56.280Z,88.94
2023-03-08T15:36:24.632Z,88.79
2023-03-08T15:38:53.047Z,88.37
2023-03-08T15:41:21.379Z,88.02
2023-03-08T15:43:49.734Z,87.88
2023-03-08T15:46:18.099Z,87.79
2023-03-08T15:48:46.530Z,87.45
2023-03-08T15:51:20.054Z,87.72
2023-03-08T15:53:49.510Z,87.54
2023-03-08T15:56:18.312Z,87.44
2023-03-08T15:58:46.788Z,87.85
2023-03-08T16:01:15.206Z,88.16
2023-03-08T16:03:43.470Z,87.98
2023-03-08T16:06:14.294Z,88.72
2023-03-08T16:08:43.261Z,89.11
2023-03-08T16:11:13.866Z,88.83
2023-03-08T16:13:42.782Z,89.12
2023-03-08T16:16:11.212Z,89.32
2023-03-08T16:18:41.349Z,89.63
2023-03-08T16:21:10.551Z,89.83
2023-03-08T16:23:42.454Z,89.84
2023-03-08T16:26:17.621Z,90.14
2023-03-08T16:28:48.149Z,90.42
2023-03-08T16:31:21.017Z,90.77
2023-03-08T16:33:49.938Z,91.32
2023-03-08T16:36:18.235Z,90.76
2023-03-08T16:38:46.564Z,91.38
2023-03-08T16:41:14.880Z,91.28
2023-03-08T16:43:47.243Z,91.59
2023-03-08T16:46:18.938Z,91.52
2023-03-08T16:48:50.165Z,91.75
2023-03-08T16:51:20.743Z,92.20
2023-03-08T16:53:50.152Z,92.52
2023-03-08T16:56:23.450Z,90.35
2023-03-08T16:58:52.158Z,92.41
2023-03-08T17:01:21.603Z,92.03
2023-03-08T17:03:50.366Z,90.87
2023-03-08T17:06:23.202Z,92.22
2023-03-08T17:08:51.864Z,89.64
2023-03-08T17:11:26.254Z,92.28
2023-03-08T17:13:57.585Z,92.49
2023-03-08T17:16:29.569Z,91.99
2023-03-08T17:19:00.390Z,89.97
2023-03-08T17:21:30.295Z,91.08
2023-03-08T17:24:00.001Z,91.87
2023-03-08T17:26:28.458Z,87.36
2023-03-08T17:28:56.737Z,90.97
2023-03-08T17:31:25.792Z,91.91
2023-03-08T17:33:54.844Z,92.01
2023-03-08T17:36:23.340Z,92.44
2023-03-08T17:38:56.656Z,92.18
2023-03-08T17:41:24.980Z,92.29
2023-03-08T17:43:53.411Z,93.53
2023-03-08T17:46:28.296Z,93.88
2023-03-08T17:48:57.564Z,93.85
2023-03-08T17:51:28.480Z,93.50
2023-03-08T17:53:58.948Z,93.10
2023-03-08T17:56:33.181Z,93.59
2023-03-08T17:59:02.824Z,93.18
2023-03-08T18:01:32.518Z,92.25
2023-03-08T18:04:02.109Z,92.22
2023-03-08T18:06:36.189Z,91.38
2023-03-08T18:09:11.232Z,91.25
2023-03-08T18:11:39.597Z,91.46
2023-03-08T18:14:10.246Z,91.33
2023-03-08T18:16:39.629Z,90.92
2023-03-08T18:19:08.714Z,90.23
2023-03-08T18:21:39.999Z,89.60
2023-03-08T18:24:13.350Z,89.32
2023-03-08T18:26:41.653Z,90.09
2023-03-08T18:29:09.971Z,90.28
2023-03-08T18:31:39.373Z,90.58
2023-03-08T18:34:08.655Z,91.21
2023-03-08T18:36:38.012Z,90.61
2023-03-08T18:39:08.752Z,90.79
2023-03-08T18:41:37.034Z,90.26
2023-03-08T18:44:06.109Z,90.31
2023-03-08T18:46:35.205Z,90.21
2023-03-08T18:49:07.716Z,89.96
2023-03-08T18:51:38.333Z,90.08
2023-03-08T18:54:06.990Z,90.25
2023-03-08T18:56:35.277Z,90.18
2023-03-08T18:59:06.074Z,89.50
2023-03-08T19:01:34.879Z,89.66
2023-03-08T19:04:08.904Z,90.67
2023-03-08T19:06:38.135Z,91.47
2023-03-08T19:09:11.934Z,91.44
2023-03-08T19:11:40.561Z,92.24
2023-03-08T19:14:09.185Z,92.38
2023-03-08T19:16:37.872Z,92.25
2023-03-08T19:19:12.127Z,92.51
2023-03-08T19:21:46.095Z,92.89
2023-03-08T19:24:16.384Z,92.94
2023-03-08T19:26:48.127Z,92.90
2023-03-08T19:29:19.693Z,90.32
2023-03-08T19:32:08.222Z,87.58
2023-03-08T19:34:39.137Z,89.40
2023-03-08T19:37:08.441Z,89.96
2023-03-08T19:39:39.265Z,90.48
2023-03-08T19:42:09.840Z,92.71
2023-03-08T19:44:38.190Z,92.56
2023-03-08T19:47:06.917Z,93.17
2023-03-08T19:49:38.749Z,93.87
2023-03-08T19:52:08.059Z,94.08
2023-03-08T19:54:36.510Z,94.09
2023-03-08T19:57:05.246Z,94.48
2023-03-08T19:59:33.549Z,95.00
2023-03-08T20:02:01.861Z,95.37
2023-03-08T20:04:30.276Z,95.36
2023-03-08T20:07:01.998Z,94.41
2023-03-08T20:09:30.616Z,95.29
2023-03-08T20:11:59.229Z,95.00
2023-03-08T20:14:28.721Z,94.60
2023-03-08T20:16:58.035Z,94.87
2023-03-08T20:19:26.775Z,95.05
2023-03-08T20:21:55.091Z,95.08
2023-03-08T20:24:25.065Z,94.70
2023-03-08T20:26:54.208Z,95.11
2023-03-08T20:29:22.809Z,95.14
2023-03-08T20:31:51.172Z,95.51
2023-03-08T20:34:19.516Z,95.04
2023-03-08T20:36:48.381Z,95.17
2023-03-08T20:39:17.106Z,95.33
2023-03-08T20:41:45.579Z,94.84
2023-03-08T20:44:13.983Z,94.34
2023-03-08T20:46:42.360Z,93.88
2023-03-08T20:49:13.292Z,93.28
2023-03-08T20:51:41.666Z,93.25
2023-03-08T20:54:10.890Z,92.90
2023-03-08T20:56:39.178Z,92.65
2023-03-08T20:59:07.518Z,93.15
2023-03-08T21:01:35.923Z,93.40
2023-03-08T21:04:04.184Z,93.29
2023-03-08T21:06:33.288Z,93.38
2023-03-08T21:09:01.988Z,93.31
2023-03-08T21:11:30.721Z,93.68
2023-03-08T21:13:59.112Z,93.54
2023-03-08T21:16:28.845Z,93.63
2023-03-08T21:19:00.162Z,93.65
2023-03-08T21:21:36.395Z,93.30
2023-03-08T21:24:11.547Z,92.86
2023-03-08T21:26:39.876Z,92.80
2023-03-08T21:29:12.094Z,92.66
2023-03-08T21:31:45.852Z,93.00
2023-03-08T21:34:14.458Z,93.37
2023-03-08T21:36:43.778Z,94.00
2023-03-08T21:39:13.149Z,93.59
2023-03-08T21:41:44.705Z,93.49
2023-03-08T21:44:21.300Z,93.23
2023-03-08T21:46:50.629Z,92.81
2023-03-08T21:49:22.778Z,92.90
2023-03-08T21:51:52.798Z,92.63
2023-03-08T21:54:23.326Z,92.38
2023-03-08T21:56:52.406Z,93.06
2023-03-08T21:59:21.030Z,92.83
2023-03-08T22:01:51.137Z,92.38
2023-03-08T22:04:19.519Z,92.52
2023-03-08T22:06:47.880Z,92.46
2023-03-08T22:09:16.245Z,92.63
2023-03-08T22:11:44.646Z,92.49
2023-03-08T22:14:13.056Z,92.54
2023-03-08T22:16:41.439Z,92.45
2023-03-08T22:19:12.492Z,92.64
2023-03-08T22:21:40.832Z,92.64
2023-03-08T22:24:09.278Z,92.71
2023-03-08T22:26:37.611Z,92.54
2023-03-08T22:29:06.167Z,93.02
2023-03-08T22:31:34.601Z,92.64
2023-03-08T22:34:02.922Z,92.47
2023-03-08T22:36:31.548Z,92.75
2023-03-08T22:38:59.864Z,92.21
2023-03-08T22:41:29.541Z,91.78
2023-03-08T22:43:57.880Z,91.93
2023-03-08T22:46:28.863Z,91.88
2023-03-08T22:49:03.565Z,91.67
2023-03-08T22:51:32.174Z,91.77
2023-03-08T22:54:04.860Z,91.83
2023-03-08T22:56:34.335Z,92.27
2023-03-08T22:59:03.645Z,91.89
2023-03-08T23:01:33.942Z,92.04
2023-03-08T23:04:03.656Z,92.17
2023-03-08T23:06:32.850Z,91.89
2023-03-08T23:09:05.291Z,91.47
2023-03-08T23:11:34.655Z,91.81
2023-03-08T23:14:04.041Z,91.76
2023-03-08T23:16:32.393Z,91.48
2023-03-08T23:19:01.135Z,91.57
2023-03-08T23:21:31.347Z,91.55
2023-03-08T23:24:00.057Z,91.43
2023-03-08T23:26:29.612Z,91.56
2023-03-08T23:28:59.665Z,89.92
2023-03-08T23:31:30.988Z,87.69
2023-03-08T23:34:01.573Z,87.37
2023-03-08T23:36:31.984Z,87.20
2023-03-08T23:39:03.614Z,87.70
2023-03-08T23:41:33.386Z,86.75
2023-03-08T23:44:03.046Z,86.46
2023-03-08T23:46:32.128Z,86.85
2023-03-08T23:49:01.732Z,85.57
2023-03-08T23:51:32.877Z,85.84
2023-03-08T23:54:02.889Z,86.34
2023-03-08T23:56:40.181Z,84.56
2023-03-08T23:59:18.147Z,83.79
